Queen Elizabeth — ZCEF2 — position and weather

sailwx.info

Track history (hours):
 
Tides and Currents Weather Stations Pressure Air Temp Water Temp Dewpoint Dewpoint Depression Visibility Wind Speed Wind Dir Waves Ship Positions

Queen Elizabeth

Last reported at 2019-Sep-17 08:00 UTC. Time now 2019-Sep-17 08:19 UTC.
Position N 55°57' W 004°46'.

Length 294 m; draft 8 m.

Type: Passenger vessel. MMSI: 310625000.

Date/timePositionNaut miles runAvg speedWind from/ knotsBaromVisibWave heightAir tempDewpointWater temp
2019-Sep-17 08:00N 55°57' W 004°46'0 0.0
2019-Sep-17 07:30N 55°57' W 004°46'0 0.0
2019-Sep-17 07:00N 55°57' W 004°46'0 0.5
2019-Sep-17 06:30N 55°58' W 004°46'2 3.5
2019-Sep-17 06:00N 55°58' W 004°49'611.3
2019-Sep-17 05:30N 55°54' W 004°55'714.4
2019-Sep-17 05:00N 55°47' W 004°58'612.1
2019-Sep-17 04:30N 55°41' W 004°59'612.0
2019-Sep-17 04:00N 55°35' W 004°60'612.3
2019-Sep-17 03:30N 55°29' W 004°60'611.3
2019-Sep-17 02:59N 55°23' W 005°03'611.9
2019-Sep-17 02:30N 55°20' W 005°12'912.3
2019-Sep-17 01:46N 55°16' W 005°26'312.7
2019-Sep-17 01:30N 55°14' W 005°31'612.5
2019-Sep-17 01:00N 55°13' W 005°41'612.1
2019-Sep-17 00:30N 55°13' W 005°52'510.9
2019-Sep-17 00:00N 55°16' W 006°00'713.4
2019-Sep-16 23:30N 55°21' W 006°07'713.0
2019-Sep-16 23:00N 55°22' W 006°19'713.7
2019-Sep-16 22:30N 55°25' W 006°30'714.4
2019-Sep-16 22:00N 55°29' W 006°40'714.9
2019-Sep-16 21:30N 55°33' W 006°52'815.3
2019-Sep-16 21:00N 55°37' W 007°03'714.6
2019-Sep-16 20:30N 55°41' W 007°14'713.8
2019-Sep-16 19:58N 55°46' W 007°23'12013.3
2019-Sep-16 11:00N 57°12' W 009°54'15913.3 290 / 301023.3 13.0 6.813.0
2019-Sep-15 23:00N 59°12' W 013°12'26816.8 260 / 301016.810.8 11.0 9.013.0
2019-Sep-15 07:00N 62°18' W 019°48'   250 / 211010.4 5.4 7.0 4.711.0
2019-Sep-12 20:00N 66°12' W 024°12'291 6.1 080 / 91000.410.8 9.0 4.5 9.0
2019-Sep-10 20:00N 65°18' W 012°36'47712.2 090 / 37987.9 2.2 9.0 6.9 8.0
2019-Sep-09 04:56N 57°59' W 006°06'511.2
2019-Sep-09 04:30N 57°54' W 006°03'6111.0
2019-Sep-08 23:00N 57°00' W 006°54'68 9.1 1011.910.8 14.012.215.0
2019-Sep-08 15:29N 55°52' W 007°04'510.9
2019-Sep-08 15:01N 55°48' W 006°59'713.3
2019-Sep-08 14:30N 55°43' W 006°50'713.5
2019-Sep-08 14:01N 55°38' W 006°42'713.8
2019-Sep-08 13:30N 55°34' W 006°33'714.4
2019-Sep-08 13:00N 55°29' W 006°23'713.9
2019-Sep-08 12:30N 55°26' W 006°12'714.4
2019-Sep-08 12:00N 55°23' W 006°00'816.0
2019-Sep-08 11:30N 55°17' W 005°53'815.9
2019-Sep-08 11:00N 55°10' W 005°45'3163.2
2019-Sep-08 11:00N 55°12' W 005°48'1120.8 170 / 81023.010.8 13.011.115.0
2019-Sep-08 10:27N 55°03' W 005°37'1315.4
2019-Sep-08 09:35N 54°51' W 005°25'114.9
2019-Sep-08 09:30N 54°50' W 005°23'715.1
2019-Sep-08 09:00N 54°44' W 005°18'714.7
2019-Sep-08 08:30N 54°38' W 005°10'713.5
2019-Sep-08 08:00N 54°32' W 005°04'713.0
2019-Sep-08 07:30N 54°26' W 005°00'612.9
2019-Sep-08 07:00N 54°20' W 005°01'2128.5
2019-Sep-08 07:00N 54°18' W 005°00'510.8 210 / 61006.2 13.011.115.0
2019-Sep-08 06:30N 54°13' W 005°04'612.9
2019-Sep-08 06:00N 54°07' W 005°06'712.9
2019-Sep-08 05:30N 54°00' W 005°08'613.1
2019-Sep-08 05:00N 53°54' W 005°10'4913.9
2019-Sep-08 01:28N 53°06' W 005°25'713.9
2019-Sep-08 01:00N 52°59' W 005°27'713.5
2019-Sep-08 00:30N 52°53' W 005°29'712.9
2019-Sep-07 23:58N 52°46' W 005°31'1616.3
2019-Sep-07 23:00N 52°30' W 005°30'4912.3 1028.310.8 14.010.216.0
2019-Sep-07 19:00N 51°42' W 005°48'530.1 020 / 101027.710.8 15.011.317.0
2019-Sep-07 18:50N 51°47' W 005°48'412.7
2019-Sep-07 18:30N 51°43' W 005°50'612.6
2019-Sep-07 18:00N 51°37' W 005°52'713.1
2019-Sep-07 17:30N 51°30' W 005°52'713.9
2019-Sep-07 17:00N 51°23' W 005°52'713.9
2019-Sep-07 16:29N 51°16' W 005°52'713.7
2019-Sep-07 15:57N 51°09' W 005°52'4113.5
2019-Sep-07 12:54N 50°27' W 005°53'  
Track history (hours):
 
Tides and Currents Weather Stations Pressure Air Temp Water Temp Dewpoint Dewpoint Depression Visibility Wind Speed Wind Dir Waves Ship Positions

Queen Elizabeth

Last reported at 2019-Sep-17 08:00 UTC. Time now 2019-Sep-17 08:19 UTC.
Position N 55°57' W 004°46'.

Length 294 m; draft 8 m.

Type: Passenger vessel. MMSI: 310625000.

Date/timePositionNaut miles runAvg speedWind from/ knotsBaromVisibWave heightAir tempDewpointWater temp
2019-Sep-17 08:00N 55°57' W 004°46'0 0.0
2019-Sep-17 07:30N 55°57' W 004°46'0 0.0
2019-Sep-17 07:00N 55°57' W 004°46'0 0.5
2019-Sep-17 06:30N 55°58' W 004°46'2 3.5
2019-Sep-17 06:00N 55°58' W 004°49'611.3
2019-Sep-17 05:30N 55°54' W 004°55'714.4
2019-Sep-17 05:00N 55°47' W 004°58'612.1
2019-Sep-17 04:30N 55°41' W 004°59'612.0
2019-Sep-17 04:00N 55°35' W 004°60'612.3
2019-Sep-17 03:30N 55°29' W 004°60'611.3
2019-Sep-17 02:59N 55°23' W 005°03'611.9
2019-Sep-17 02:30N 55°20' W 005°12'912.3
2019-Sep-17 01:46N 55°16' W 005°26'312.7
2019-Sep-17 01:30N 55°14' W 005°31'612.5
2019-Sep-17 01:00N 55°13' W 005°41'612.1
2019-Sep-17 00:30N 55°13' W 005°52'510.9
2019-Sep-17 00:00N 55°16' W 006°00'713.4
2019-Sep-16 23:30N 55°21' W 006°07'713.0
2019-Sep-16 23:00N 55°22' W 006°19'713.7
2019-Sep-16 22:30N 55°25' W 006°30'714.4
2019-Sep-16 22:00N 55°29' W 006°40'714.9
2019-Sep-16 21:30N 55°33' W 006°52'815.3
2019-Sep-16 21:00N 55°37' W 007°03'714.6
2019-Sep-16 20:30N 55°41' W 007°14'713.8
2019-Sep-16 19:58N 55°46' W 007°23'12013.3
2019-Sep-16 11:00N 57°12' W 009°54'15913.3 290 / 301023.3 13.0 6.813.0
2019-Sep-15 23:00N 59°12' W 013°12'26816.8 260 / 301016.810.8 11.0 9.013.0
2019-Sep-15 07:00N 62°18' W 019°48'   250 / 211010.4 5.4 7.0 4.711.0
2019-Sep-12 20:00N 66°12' W 024°12'291 6.1 080 / 91000.410.8 9.0 4.5 9.0
2019-Sep-10 20:00N 65°18' W 012°36'47712.2 090 / 37987.9 2.2 9.0 6.9 8.0
2019-Sep-09 04:56N 57°59' W 006°06'511.2
2019-Sep-09 04:30N 57°54' W 006°03'6111.0
2019-Sep-08 23:00N 57°00' W 006°54'68 9.1 1011.910.8 14.012.215.0
2019-Sep-08 15:29N 55°52' W 007°04'510.9
2019-Sep-08 15:01N 55°48' W 006°59'713.3
2019-Sep-08 14:30N 55°43' W 006°50'713.5
2019-Sep-08 14:01N 55°38' W 006°42'713.8
2019-Sep-08 13:30N 55°34' W 006°33'714.4
2019-Sep-08 13:00N 55°29' W 006°23'713.9
2019-Sep-08 12:30N 55°26' W 006°12'714.4
2019-Sep-08 12:00N 55°23' W 006°00'816.0
2019-Sep-08 11:30N 55°17' W 005°53'815.9
2019-Sep-08 11:00N 55°10' W 005°45'3163.2
2019-Sep-08 11:00N 55°12' W 005°48'1120.8 170 / 81023.010.8 13.011.115.0
2019-Sep-08 10:27N 55°03' W 005°37'1315.4
2019-Sep-08 09:35N 54°51' W 005°25'114.9
2019-Sep-08 09:30N 54°50' W 005°23'715.1
2019-Sep-08 09:00N 54°44' W 005°18'714.7
2019-Sep-08 08:30N 54°38' W 005°10'713.5
2019-Sep-08 08:00N 54°32' W 005°04'713.0
2019-Sep-08 07:30N 54°26' W 005°00'612.9
2019-Sep-08 07:00N 54°20' W 005°01'2128.5
2019-Sep-08 07:00N 54°18' W 005°00'510.8 210 / 61006.2 13.011.115.0
2019-Sep-08 06:30N 54°13' W 005°04'612.9
2019-Sep-08 06:00N 54°07' W 005°06'712.9
2019-Sep-08 05:30N 54°00' W 005°08'613.1
2019-Sep-08 05:00N 53°54' W 005°10'4913.9
2019-Sep-08 01:28N 53°06' W 005°25'713.9
2019-Sep-08 01:00N 52°59' W 005°27'713.5
2019-Sep-08 00:30N 52°53' W 005°29'712.9
2019-Sep-07 23:58N 52°46' W 005°31'1616.3
2019-Sep-07 23:00N 52°30' W 005°30'4912.3 1028.310.8 14.010.216.0
2019-Sep-07 19:00N 51°42' W 005°48'530.1 020 / 101027.710.8 15.011.317.0
2019-Sep-07 18:50N 51°47' W 005°48'412.7
2019-Sep-07 18:30N 51°43' W 005°50'612.6
2019-Sep-07 18:00N 51°37' W 005°52'713.1
2019-Sep-07 17:30N 51°30' W 005°52'713.9
2019-Sep-07 17:00N 51°23' W 005°52'713.9
2019-Sep-07 16:29N 51°16' W 005°52'713.7
2019-Sep-07 15:57N 51°09' W 005°52'4113.5
2019-Sep-07 12:54N 50°27' W 005°53'  

Dump ship's entire track history